sensor_id;sensor_type;location;lat;lon;timestamp;P1;durP1;ratioP1;P2;durP2;ratioP2
63157;SDS011;49381;49.338;8.794;2023-03-14T00:04:40;7.60;;;2.90;;
63157;SDS011;49381;49.338;8.794;2023-03-14T00:07:03;5.40;;;3.05;;
63157;SDS011;49381;49.338;8.794;2023-03-14T00:12:06;6.22;;;3.33;;
63157;SDS011;49381;49.338;8.794;2023-03-14T00:14:28;5.53;;;3.30;;
63157;SDS011;49381;49.338;8.794;2023-03-14T00:16:50;7.40;;;3.17;;
63157;SDS011;49381;49.338;8.794;2023-03-14T00:19:19;5.68;;;2.63;;
63157;SDS011;49381;49.338;8.794;2023-03-14T00:21:45;6.38;;;3.50;;
63157;SDS011;49381;49.338;8.794;2023-03-14T00:24:01;7.65;;;2.30;;
63157;SDS011;49381;49.338;8.794;2023-03-14T00:26:03;5.95;;;1.98;;
63157;SDS011;49381;49.338;8.794;2023-03-14T00:33:15;2.97;;;0.85;;
63157;SDS011;49381;49.338;8.794;2023-03-14T00:35:44;3.45;;;0.80;;
63157;SDS011;49381;49.338;8.794;2023-03-14T00:40:44;2.17;;;0.90;;
63157;SDS011;49381;49.338;8.794;2023-03-14T00:43:12;1.73;;;0.70;;
63157;SDS011;49381;49.338;8.794;2023-03-14T00:45:46;1.27;;;0.60;;
63157;SDS011;49381;49.338;8.794;2023-03-14T00:48:05;2.10;;;0.70;;
63157;SDS011;49381;49.338;8.794;2023-03-14T00:50:20;1.98;;;0.70;;
63157;SDS011;49381;49.338;8.794;2023-03-14T00:55:10;0.55;;;0.50;;
63157;SDS011;49381;49.338;8.794;2023-03-14T01:10:38;2.08;;;0.60;;
63157;SDS011;49381;49.338;8.794;2023-03-14T01:13:10;0.43;;;0.30;;
63157;SDS011;49381;49.338;8.794;2023-03-14T01:15:11;1.27;;;0.50;;
63157;SDS011;49381;49.338;8.794;2023-03-14T01:17:20;2.40;;;0.65;;
63157;SDS011;49381;49.338;8.794;2023-03-14T01:22:30;1.27;;;0.60;;
63157;SDS011;49381;49.338;8.794;2023-03-14T01:24:35;1.58;;;0.55;;
63157;SDS011;49381;49.338;8.794;2023-03-14T01:32:02;2.45;;;0.50;;
63157;SDS011;49381;49.338;8.794;2023-03-14T01:34:09;0.80;;;0.40;;
63157;SDS011;49381;49.338;8.794;2023-03-14T01:36:19;2.38;;;0.60;;
63157;SDS011;49381;49.338;8.794;2023-03-14T01:38:25;3.55;;;0.65;;
63157;SDS011;49381;49.338;8.794;2023-03-14T01:40:52;1.77;;;0.40;;
63157;SDS011;49381;49.338;8.794;2023-03-14T01:43:12;3.67;;;0.52;;
63157;SDS011;49381;49.338;8.794;2023-03-14T01:48:22;1.33;;;0.52;;
63157;SDS011;49381;49.338;8.794;2023-03-14T01:50:23;0.60;;;0.50;;
63157;SDS011;49381;49.338;8.794;2023-03-14T01:52:31;0.88;;;0.63;;
63157;SDS011;49381;49.338;8.794;2023-03-14T01:54:54;1.50;;;0.65;;
63157;SDS011;49381;49.338;8.794;2023-03-14T01:57:12;0.80;;;0.45;;
63157;SDS011;49381;49.338;8.794;2023-03-14T01:59:23;0.57;;;0.43;;
63157;SDS011;49381;49.338;8.794;2023-03-14T02:01:42;3.42;;;0.65;;
63157;SDS011;49381;49.338;8.794;2023-03-14T02:04:23;2.58;;;0.60;;
63157;SDS011;49381;49.338;8.794;2023-03-14T02:07:03;1.83;;;0.50;;
63157;SDS011;49381;49.338;8.794;2023-03-14T02:09:25;2.05;;;0.60;;
63157;SDS011;49381;49.338;8.794;2023-03-14T02:16:31;1.63;;;0.52;;
63157;SDS011;49381;49.338;8.794;2023-03-14T02:19:07;1.63;;;0.50;;
63157;SDS011;49381;49.338;8.794;2023-03-14T02:31:35;1.38;;;0.50;;
63157;SDS011;49381;49.338;8.794;2023-03-14T02:34:27;6.10;;;0.80;;
63157;SDS011;49381;49.338;8.794;2023-03-14T02:36:41;1.80;;;0.57;;
63157;SDS011;49381;49.338;8.794;2023-03-14T02:39:05;2.08;;;0.50;;
63157;SDS011;49381;49.338;8.794;2023-03-14T02:41:16;2.13;;;0.63;;
63157;SDS011;49381;49.338;8.794;2023-03-14T02:46:09;2.33;;;0.50;;
63157;SDS011;49381;49.338;8.794;2023-03-14T02:51:43;1.63;;;0.50;;
63157;SDS011;49381;49.338;8.794;2023-03-14T02:54:18;1.67;;;0.80;;
63157;SDS011;49381;49.338;8.794;2023-03-14T02:56:01;1.60;;;0.50;;
63157;SDS011;49381;49.338;8.794;2023-03-14T03:00:46;3.97;;;0.90;;
63157;SDS011;49381;49.338;8.794;2023-03-14T03:02:53;3.05;;;0.90;;
63157;SDS011;49381;49.338;8.794;2023-03-14T03:12:45;2.35;;;0.77;;
63157;SDS011;49381;49.338;8.794;2023-03-14T03:15:06;1.52;;;0.68;;
63157;SDS011;49381;49.338;8.794;2023-03-14T03:20:25;1.08;;;0.60;;
63157;SDS011;49381;49.338;8.794;2023-03-14T04:50:07;2.75;;;0.98;;
63157;SDS011;49381;49.338;8.794;2023-03-14T04:53:24;3.40;;;0.70;;
63157;SDS011;49381;49.338;8.794;2023-03-14T04:55:14;2.28;;;0.50;;
63157;SDS011;49381;49.338;8.794;2023-03-14T04:57:33;5.70;;;0.90;;
63157;SDS011;49381;49.338;8.794;2023-03-14T05:04:40;4.90;;;0.60;;
63157;SDS011;49381;49.338;8.794;2023-03-14T05:06:51;3.35;;;0.82;;
63157;SDS011;49381;49.338;8.794;2023-03-14T05:11:56;4.78;;;0.80;;
63157;SDS011;49381;49.338;8.794;2023-03-14T05:16:01;2.25;;;0.65;;
63157;SDS011;49381;49.338;8.794;2023-03-14T05:39:42;2.70;;;0.70;;
63157;SDS011;49381;49.338;8.794;2023-03-14T07:30:30;4.97;;;0.75;;
63157;SDS011;49381;49.338;8.794;2023-03-14T08:28:29;4.40;;;0.65;;
63157;SDS011;49381;49.338;8.794;2023-03-14T10:21:38;1.67;;;0.40;;
63157;SDS011;49381;49.338;8.794;2023-03-14T10:23:39;2.78;;;0.50;;
63157;SDS011;49381;49.338;8.794;2023-03-14T10:25:40;0.68;;;0.47;;
63157;SDS011;49381;49.338;8.794;2023-03-14T10:27:43;0.68;;;0.40;;
63157;SDS011;49381;49.338;8.794;2023-03-14T10:32:01;0.68;;;0.28;;
63157;SDS011;49381;49.338;8.794;2023-03-14T10:34:04;2.28;;;0.40;;
63157;SDS011;49381;49.338;8.794;2023-03-14T10:36:06;1.10;;;0.35;;
63157;SDS011;49381;49.338;8.794;2023-03-14T10:38:32;2.38;;;0.50;;
63157;SDS011;49381;49.338;8.794;2023-03-14T10:40:50;1.67;;;0.50;;
63157;SDS011;49381;49.338;8.794;2023-03-14T10:43:16;0.60;;;0.50;;
63157;SDS011;49381;49.338;8.794;2023-03-14T10:45:25;1.33;;;0.35;;
63157;SDS011;49381;49.338;8.794;2023-03-14T10:47:47;1.85;;;0.50;;
63157;SDS011;49381;49.338;8.794;2023-03-14T10:49:51;0.52;;;0.30;;
63157;SDS011;49381;49.338;8.794;2023-03-14T10:54:47;2.30;;;0.85;;
63157;SDS011;49381;49.338;8.794;2023-03-14T10:56:57;0.65;;;0.40;;
63157;SDS011;49381;49.338;8.794;2023-03-14T10:58:58;0.85;;;0.40;;
63157;SDS011;49381;49.338;8.794;2023-03-14T11:01:06;1.40;;;0.32;;
63157;SDS011;49381;49.338;8.794;2023-03-14T11:03:15;1.40;;;0.28;;
63157;SDS011;49381;49.338;8.794;2023-03-14T11:05:22;0.60;;;0.30;;
63157;SDS011;49381;49.338;8.794;2023-03-14T11:07:29;0.32;;;0.20;;
63157;SDS011;49381;49.338;8.794;2023-03-14T11:09:39;1.58;;;0.45;;
63157;SDS011;49381;49.338;8.794;2023-03-14T11:11:46;1.45;;;0.47;;
63157;SDS011;49381;49.338;8.794;2023-03-14T11:13:50;1.75;;;0.50;;
63157;SDS011;49381;49.338;8.794;2023-03-14T11:16:31;0.68;;;0.30;;
63157;SDS011;49381;49.338;8.794;2023-03-14T11:18:46;1.75;;;0.60;;
63157;SDS011;49381;49.338;8.794;2023-03-14T11:20:54;0.45;;;0.30;;
63157;SDS011;49381;49.338;8.794;2023-03-14T11:23:14;0.85;;;0.40;;
63157;SDS011;49381;49.338;8.794;2023-03-14T11:25:24;0.60;;;0.30;;
63157;SDS011;49381;49.338;8.794;2023-03-14T11:27:42;2.75;;;0.43;;
63157;SDS011;49381;49.338;8.794;2023-03-14T11:29:46;1.60;;;0.30;;
63157;SDS011;49381;49.338;8.794;2023-03-14T11:31:54;1.30;;;0.30;;
63157;SDS011;49381;49.338;8.794;2023-03-14T11:34:00;1.70;;;0.52;;
63157;SDS011;49381;49.338;8.794;2023-03-14T11:36:03;0.38;;;0.13;;
63157;SDS011;49381;49.338;8.794;2023-03-14T11:38:11;4.35;;;0.93;;
63157;SDS011;49381;49.338;8.794;2023-03-14T11:42:21;1.25;;;0.40;;
63157;SDS011;49381;49.338;8.794;2023-03-14T11:44:27;0.73;;;0.40;;
63157;SDS011;49381;49.338;8.794;2023-03-14T11:46:34;0.80;;;0.40;;
63157;SDS011;49381;49.338;8.794;2023-03-14T11:48:42;0.85;;;0.55;;
63157;SDS011;49381;49.338;8.794;2023-03-14T11:50:47;2.88;;;0.40;;
63157;SDS011;49381;49.338;8.794;2023-03-14T11:52:55;18.55;;;11.50;;
63157;SDS011;49381;49.338;8.794;2023-03-14T11:55:02;1.80;;;0.80;;
63157;SDS011;49381;49.338;8.794;2023-03-14T11:57:09;1.27;;;0.50;;
63157;SDS011;49381;49.338;8.794;2023-03-14T11:59:17;1.13;;;0.55;;
63157;SDS011;49381;49.338;8.794;2023-03-14T12:01:27;0.20;;;0.20;;
63157;SDS011;49381;49.338;8.794;2023-03-14T12:03:35;1.70;;;0.85;;
63157;SDS011;49381;49.338;8.794;2023-03-14T12:05:45;0.57;;;0.40;;
63157;SDS011;49381;49.338;8.794;2023-03-14T12:08:03;1.15;;;0.40;;
63157;SDS011;49381;49.338;8.794;2023-03-14T12:15:26;1.33;;;0.50;;
63157;SDS011;49381;49.338;8.794;2023-03-14T12:17:40;1.17;;;0.40;;
63157;SDS011;49381;49.338;8.794;2023-03-14T12:20:15;1.30;;;0.60;;
63157;SDS011;49381;49.338;8.794;2023-03-14T12:22:55;0.73;;;0.30;;
63157;SDS011;49381;49.338;8.794;2023-03-14T16:22:29;2.00;;;0.85;;
63157;SDS011;49381;49.338;8.794;2023-03-14T16:24:37;3.53;;;0.80;;
63157;SDS011;49381;49.338;8.794;2023-03-14T16:26:39;1.60;;;0.60;;
63157;SDS011;49381;49.338;8.794;2023-03-14T16:29:12;4.55;;;1.05;;
63157;SDS011;49381;49.338;8.794;2023-03-14T16:33:54;2.88;;;1.20;;
63157;SDS011;49381;49.338;8.794;2023-03-14T16:36:22;4.70;;;0.77;;
63157;SDS011;49381;49.338;8.794;2023-03-14T16:41:54;3.42;;;0.82;;
63157;SDS011;49381;49.338;8.794;2023-03-14T16:44:14;5.40;;;1.35;;
63157;SDS011;49381;49.338;8.794;2023-03-14T16:47:05;4.38;;;1.40;;
63157;SDS011;49381;49.338;8.794;2023-03-14T17:15:00;6.18;;;1.52;;
63157;SDS011;49381;49.338;8.794;2023-03-14T17:27:43;4.50;;;1.02;;
63157;SDS011;49381;49.338;8.794;2023-03-14T17:32:43;5.18;;;0.98;;
63157;SDS011;49381;49.338;8.794;2023-03-14T17:35:15;4.18;;;1.20;;
63157;SDS011;49381;49.338;8.794;2023-03-14T17:37:46;7.10;;;2.30;;
63157;SDS011;49381;49.338;8.794;2023-03-14T17:40:28;6.72;;;2.10;;
63157;SDS011;49381;49.338;8.794;2023-03-14T17:42:54;7.70;;;2.78;;
63157;SDS011;49381;49.338;8.794;2023-03-14T17:45:05;3.88;;;1.20;;
63157;SDS011;49381;49.338;8.794;2023-03-14T17:50:10;5.93;;;1.30;;
63157;SDS011;49381;49.338;8.794;2023-03-14T17:53:19;3.60;;;1.30;;
63157;SDS011;49381;49.338;8.794;2023-03-14T17:54:47;5.57;;;0.88;;
63157;SDS011;49381;49.338;8.794;2023-03-14T17:56:51;3.92;;;1.00;;
63157;SDS011;49381;49.338;8.794;2023-03-14T17:59:15;4.45;;;1.10;;
63157;SDS011;49381;49.338;8.794;2023-03-14T18:06:29;3.80;;;0.93;;
63157;SDS011;49381;49.338;8.794;2023-03-14T18:08:54;2.90;;;0.90;;
63157;SDS011;49381;49.338;8.794;2023-03-14T18:11:36;4.15;;;1.02;;
63157;SDS011;49381;49.338;8.794;2023-03-14T18:16:41;4.65;;;0.90;;
63157;SDS011;49381;49.338;8.794;2023-03-14T18:25:56;5.47;;;1.35;;
63157;SDS011;49381;49.338;8.794;2023-03-14T18:31:19;4.93;;;1.10;;
63157;SDS011;49381;49.338;8.794;2023-03-14T18:33:36;4.75;;;1.30;;
63157;SDS011;49381;49.338;8.794;2023-03-14T18:45:08;4.32;;;1.40;;
63157;SDS011;49381;49.338;8.794;2023-03-14T18:49:32;3.25;;;1.23;;
63157;SDS011;49381;49.338;8.794;2023-03-14T18:54:13;7.00;;;1.80;;
63157;SDS011;49381;49.338;8.794;2023-03-14T18:58:50;3.42;;;0.80;;
63157;SDS011;49381;49.338;8.794;2023-03-14T19:03:10;2.70;;;0.82;;
63157;SDS011;49381;49.338;8.794;2023-03-14T19:05:24;3.42;;;1.00;;
63157;SDS011;49381;49.338;8.794;2023-03-14T19:07:31;4.72;;;1.30;;
63157;SDS011;49381;49.338;8.794;2023-03-14T19:09:36;5.97;;;1.73;;
63157;SDS011;49381;49.338;8.794;2023-03-14T19:12:02;4.35;;;1.45;;
63157;SDS011;49381;49.338;8.794;2023-03-14T19:14:14;4.78;;;1.48;;
63157;SDS011;49381;49.338;8.794;2023-03-14T19:16:18;3.67;;;1.25;;
63157;SDS011;49381;49.338;8.794;2023-03-14T19:18:20;5.10;;;1.35;;
63157;SDS011;49381;49.338;8.794;2023-03-14T19:20:21;2.58;;;0.95;;
63157;SDS011;49381;49.338;8.794;2023-03-14T19:22:30;3.72;;;1.25;;
63157;SDS011;49381;49.338;8.794;2023-03-14T19:24:41;4.20;;;1.30;;
63157;SDS011;49381;49.338;8.794;2023-03-14T19:27:03;5.82;;;1.15;;
63157;SDS011;49381;49.338;8.794;2023-03-14T19:35:28;3.63;;;1.55;;
63157;SDS011;49381;49.338;8.794;2023-03-14T19:37:15;3.90;;;1.00;;
63157;SDS011;49381;49.338;8.794;2023-03-14T19:39:34;3.47;;;1.27;;
63157;SDS011;49381;49.338;8.794;2023-03-14T19:41:38;2.85;;;1.35;;
63157;SDS011;49381;49.338;8.794;2023-03-14T19:44:06;2.95;;;1.70;;
63157;SDS011;49381;49.338;8.794;2023-03-14T19:48:51;4.70;;;1.30;;
63157;SDS011;49381;49.338;8.794;2023-03-14T19:51:07;4.07;;;1.10;;
63157;SDS011;49381;49.338;8.794;2023-03-14T19:53:13;4.07;;;1.67;;
63157;SDS011;49381;49.338;8.794;2023-03-14T19:55:29;2.28;;;1.13;;
63157;SDS011;49381;49.338;8.794;2023-03-14T19:57:54;4.47;;;1.70;;
63157;SDS011;49381;49.338;8.794;2023-03-14T20:02:53;5.97;;;1.60;;
63157;SDS011;49381;49.338;8.794;2023-03-14T20:05:09;2.72;;;1.45;;
63157;SDS011;49381;49.338;8.794;2023-03-14T20:11:09;5.20;;;1.23;;
63157;SDS011;49381;49.338;8.794;2023-03-14T20:12:29;4.20;;;1.50;;
63157;SDS011;49381;49.338;8.794;2023-03-14T20:17:43;3.88;;;1.30;;
63157;SDS011;49381;49.338;8.794;2023-03-14T20:20:12;5.57;;;1.80;;
63157;SDS011;49381;49.338;8.794;2023-03-14T20:26:19;2.80;;;1.02;;
63157;SDS011;49381;49.338;8.794;2023-03-14T20:27:43;1.70;;;1.08;;
63157;SDS011;49381;49.338;8.794;2023-03-14T20:34:36;2.70;;;1.20;;
63157;SDS011;49381;49.338;8.794;2023-03-14T20:36:48;2.55;;;1.23;;
63157;SDS011;49381;49.338;8.794;2023-03-14T20:39:06;3.42;;;1.20;;
63157;SDS011;49381;49.338;8.794;2023-03-14T20:41:30;2.10;;;1.20;;
63157;SDS011;49381;49.338;8.794;2023-03-14T20:43:38;2.80;;;1.45;;
63157;SDS011;49381;49.338;8.794;2023-03-14T20:45:59;3.33;;;1.50;;
63157;SDS011;49381;49.338;8.794;2023-03-14T20:48:15;3.33;;;1.25;;
63157;SDS011;49381;49.338;8.794;2023-03-14T20:50:29;6.10;;;2.50;;
63157;SDS011;49381;49.338;8.794;2023-03-14T21:00:44;6.15;;;1.80;;
63157;SDS011;49381;49.338;8.794;2023-03-14T21:03:08;4.82;;;1.67;;
63157;SDS011;49381;49.338;8.794;2023-03-14T21:05:15;6.53;;;2.10;;
63157;SDS011;49381;49.338;8.794;2023-03-14T21:07:23;2.67;;;1.50;;
63157;SDS011;49381;49.338;8.794;2023-03-14T21:09:39;4.85;;;1.80;;
63157;SDS011;49381;49.338;8.794;2023-03-14T21:12:42;5.47;;;2.13;;
63157;SDS011;49381;49.338;8.794;2023-03-14T21:14:11;5.03;;;1.80;;
63157;SDS011;49381;49.338;8.794;2023-03-14T21:16:23;3.30;;;1.63;;
63157;SDS011;49381;49.338;8.794;2023-03-14T21:18:27;4.60;;;1.92;;
63157;SDS011;49381;49.338;8.794;2023-03-14T21:21:03;4.07;;;1.90;;
63157;SDS011;49381;49.338;8.794;2023-03-14T21:23:09;4.50;;;1.80;;
63157;SDS011;49381;49.338;8.794;2023-03-14T21:32:44;3.70;;;1.40;;
63157;SDS011;49381;49.338;8.794;2023-03-14T21:35:16;5.15;;;1.33;;
63157;SDS011;49381;49.338;8.794;2023-03-14T21:37:16;3.03;;;1.10;;
63157;SDS011;49381;49.338;8.794;2023-03-14T21:39:59;2.67;;;1.17;;
63157;SDS011;49381;49.338;8.794;2023-03-14T21:41:45;3.92;;;1.20;;
63157;SDS011;49381;49.338;8.794;2023-03-14T21:43:48;2.33;;;1.08;;
63157;SDS011;49381;49.338;8.794;2023-03-14T21:46:12;2.88;;;1.38;;
63157;SDS011;49381;49.338;8.794;2023-03-14T21:48:14;2.72;;;1.10;;
63157;SDS011;49381;49.338;8.794;2023-03-14T21:50:20;4.38;;;1.38;;
63157;SDS011;49381;49.338;8.794;2023-03-14T21:52:24;1.92;;;1.13;;
63157;SDS011;49381;49.338;8.794;2023-03-14T21:54:26;3.75;;;1.20;;
63157;SDS011;49381;49.338;8.794;2023-03-14T21:56:29;3.00;;;1.48;;
63157;SDS011;49381;49.338;8.794;2023-03-14T21:58:46;2.97;;;1.60;;
63157;SDS011;49381;49.338;8.794;2023-03-14T22:00:49;2.67;;;1.45;;
63157;SDS011;49381;49.338;8.794;2023-03-14T22:02:54;3.50;;;1.42;;
63157;SDS011;49381;49.338;8.794;2023-03-14T22:04:56;4.35;;;2.13;;
63157;SDS011;49381;49.338;8.794;2023-03-14T22:07:09;4.45;;;1.35;;
63157;SDS011;49381;49.338;8.794;2023-03-14T22:09:11;3.63;;;1.52;;
63157;SDS011;49381;49.338;8.794;2023-03-14T22:11:13;3.28;;;1.10;;
63157;SDS011;49381;49.338;8.794;2023-03-14T22:13:29;3.78;;;1.10;;
63157;SDS011;49381;49.338;8.794;2023-03-14T22:15:33;1.95;;;1.00;;
63157;SDS011;49381;49.338;8.794;2023-03-14T22:17:34;4.18;;;1.38;;
63157;SDS011;49381;49.338;8.794;2023-03-14T22:19:34;6.03;;;1.23;;
63157;SDS011;49381;49.338;8.794;2023-03-14T22:21:46;6.70;;;1.85;;
63157;SDS011;49381;49.338;8.794;2023-03-14T22:24:01;8.38;;;2.40;;
63157;SDS011;49381;49.338;8.794;2023-03-14T22:26:19;3.47;;;1.58;;
63157;SDS011;49381;49.338;8.794;2023-03-14T22:28:20;3.65;;;1.48;;
63157;SDS011;49381;49.338;8.794;2023-03-14T22:30:51;5.97;;;2.10;;
63157;SDS011;49381;49.338;8.794;2023-03-14T22:32:52;9.68;;;2.88;;
63157;SDS011;49381;49.338;8.794;2023-03-14T22:34:56;5.15;;;2.30;;
63157;SDS011;49381;49.338;8.794;2023-03-14T22:37:05;6.65;;;2.90;;
63157;SDS011;49381;49.338;8.794;2023-03-14T22:39:09;10.00;;;2.90;;
63157;SDS011;49381;49.338;8.794;2023-03-14T22:41:17;7.35;;;2.72;;
63157;SDS011;49381;49.338;8.794;2023-03-14T22:43:25;6.90;;;2.15;;
63157;SDS011;49381;49.338;8.794;2023-03-14T22:45:26;7.68;;;2.70;;
63157;SDS011;49381;49.338;8.794;2023-03-14T22:47:37;5.00;;;2.08;;
63157;SDS011;49381;49.338;8.794;2023-03-14T22:49:41;5.63;;;2.50;;
63157;SDS011;49381;49.338;8.794;2023-03-14T22:51:41;11.68;;;3.15;;
63157;SDS011;49381;49.338;8.794;2023-03-14T22:53:47;15.18;;;3.65;;
63157;SDS011;49381;49.338;8.794;2023-03-14T22:56:01;15.13;;;4.25;;
63157;SDS011;49381;49.338;8.794;2023-03-14T22:58:25;13.95;;;3.50;;
63157;SDS011;49381;49.338;8.794;2023-03-14T23:00:38;10.68;;;2.80;;
63157;SDS011;49381;49.338;8.794;2023-03-14T23:03:04;8.95;;;3.40;;
63157;SDS011;49381;49.338;8.794;2023-03-14T23:05:10;12.23;;;2.47;;
63157;SDS011;49381;49.338;8.794;2023-03-14T23:07:50;6.72;;;2.50;;
63157;SDS011;49381;49.338;8.794;2023-03-14T23:09:54;16.13;;;3.63;;
63157;SDS011;49381;49.338;8.794;2023-03-14T23:12:00;9.98;;;2.50;;
63157;SDS011;49381;49.338;8.794;2023-03-14T23:14:19;16.98;;;3.45;;
63157;SDS011;49381;49.338;8.794;2023-03-14T23:16:29;14.93;;;3.97;;
63157;SDS011;49381;49.338;8.794;2023-03-14T23:18:30;14.35;;;3.33;;
63157;SDS011;49381;49.338;8.794;2023-03-14T23:20:37;6.00;;;2.60;;
63157;SDS011;49381;49.338;8.794;2023-03-14T23:22:59;9.00;;;2.75;;
63157;SDS011;49381;49.338;8.794;2023-03-14T23:31:55;8.27;;;2.20;;
63157;SDS011;49381;49.338;8.794;2023-03-14T23:35:19;9.27;;;2.25;;
63157;SDS011;49381;49.338;8.794;2023-03-14T23:40:05;7.28;;;1.95;;
63157;SDS011;49381;49.338;8.794;2023-03-14T23:42:29;8.32;;;1.73;;
63157;SDS011;49381;49.338;8.794;2023-03-14T23:44:40;6.68;;;1.70;;
63157;SDS011;49381;49.338;8.794;2023-03-14T23:46:48;5.53;;;1.50;;
63157;SDS011;49381;49.338;8.794;2023-03-14T23:48:50;7.82;;;1.95;;
63157;SDS011;49381;49.338;8.794;2023-03-14T23:50:52;7.05;;;1.67;;
63157;SDS011;49381;49.338;8.794;2023-03-14T23:53:09;6.25;;;2.00;;
63157;SDS011;49381;49.338;8.794;2023-03-14T23:55:09;7.85;;;2.10;;
63157;SDS011;49381;49.338;8.794;2023-03-14T23:57:10;8.52;;;2.35;;
63157;SDS011;49381;49.338;8.794;2023-03-14T23:59:15;8.52;;;2.72;;
